sensor_id;sensor_type;location;lat;lon;timestamp;P1;durP1;ratioP1;P2;durP2;ratioP2
11269;SDS011;5692;48.956;9.200;2022-12-17T00:01:17;84.35;;;80.25;;
11269;SDS011;5692;48.956;9.200;2022-12-17T00:04:02;87.43;;;83.22;;
11269;SDS011;5692;48.956;9.200;2022-12-17T00:06:47;86.97;;;82.78;;
11269;SDS011;5692;48.956;9.200;2022-12-17T00:09:31;86.20;;;82.05;;
11269;SDS011;5692;48.956;9.200;2022-12-17T00:12:16;92.10;;;87.68;;
11269;SDS011;5692;48.956;9.200;2022-12-17T00:15:00;87.72;;;83.50;;
11269;SDS011;5692;48.956;9.200;2022-12-17T00:17:45;82.38;;;78.38;;
11269;SDS011;5692;48.956;9.200;2022-12-17T00:20:29;85.75;;;81.65;;
11269;SDS011;5692;48.956;9.200;2022-12-17T00:23:14;83.75;;;79.72;;
11269;SDS011;5692;48.956;9.200;2022-12-17T00:25:59;81.18;;;77.28;;
11269;SDS011;5692;48.956;9.200;2022-12-17T00:28:43;81.95;;;78.00;;
11269;SDS011;5692;48.956;9.200;2022-12-17T00:31:28;82.60;;;78.63;;
11269;SDS011;5692;48.956;9.200;2022-12-17T00:34:14;72.07;;;68.60;;
11269;SDS011;5692;48.956;9.200;2022-12-17T00:36:58;89.72;;;85.38;;
11269;SDS011;5692;48.956;9.200;2022-12-17T00:39:43;84.50;;;80.43;;
11269;SDS011;5692;48.956;9.200;2022-12-17T00:42:27;84.38;;;80.30;;
11269;SDS011;5692;48.956;9.200;2022-12-17T00:45:12;81.82;;;77.88;;
11269;SDS011;5692;48.956;9.200;2022-12-17T00:47:57;81.45;;;77.55;;
11269;SDS011;5692;48.956;9.200;2022-12-17T00:50:41;83.95;;;79.90;;
11269;SDS011;5692;48.956;9.200;2022-12-17T00:53:26;82.85;;;78.85;;
11269;SDS011;5692;48.956;9.200;2022-12-17T00:56:10;81.22;;;77.30;;
11269;SDS011;5692;48.956;9.200;2022-12-17T00:58:55;78.45;;;74.65;;
11269;SDS011;5692;48.956;9.200;2022-12-17T01:01:39;82.03;;;78.05;;
11269;SDS011;5692;48.956;9.200;2022-12-17T01:04:24;85.03;;;80.93;;
11269;SDS011;5692;48.956;9.200;2022-12-17T01:07:08;81.28;;;77.38;;
11269;SDS011;5692;48.956;9.200;2022-12-17T01:09:53;79.60;;;75.78;;
11269;SDS011;5692;48.956;9.200;2022-12-17T01:12:37;89.20;;;84.90;;
11269;SDS011;5692;48.956;9.200;2022-12-17T01:15:22;82.63;;;78.63;;
11269;SDS011;5692;48.956;9.200;2022-12-17T01:18:07;83.22;;;79.22;;
11269;SDS011;5692;48.956;9.200;2022-12-17T01:20:55;86.03;;;81.90;;
11269;SDS011;5692;48.956;9.200;2022-12-17T01:23:40;83.63;;;79.63;;
11269;SDS011;5692;48.956;9.200;2022-12-17T01:26:24;84.03;;;79.97;;
11269;SDS011;5692;48.956;9.200;2022-12-17T01:29:09;80.97;;;77.07;;
11269;SDS011;5692;48.956;9.200;2022-12-17T01:31:53;85.65;;;81.55;;
11269;SDS011;5692;48.956;9.200;2022-12-17T01:34:38;85.05;;;80.95;;
11269;SDS011;5692;48.956;9.200;2022-12-17T01:37:23;84.30;;;80.20;;
11269;SDS011;5692;48.956;9.200;2022-12-17T01:40:07;83.53;;;79.53;;
11269;SDS011;5692;48.956;9.200;2022-12-17T01:42:52;88.32;;;84.05;;
11269;SDS011;5692;48.956;9.200;2022-12-17T01:45:38;88.90;;;84.63;;
11269;SDS011;5692;48.956;9.200;2022-12-17T01:48:26;81.57;;;77.63;;
11269;SDS011;5692;48.956;9.200;2022-12-17T01:51:12;75.22;;;71.63;;
11269;SDS011;5692;48.956;9.200;2022-12-17T01:53:58;82.30;;;78.32;;
11269;SDS011;5692;48.956;9.200;2022-12-17T01:56:43;81.75;;;77.82;;
11269;SDS011;5692;48.956;9.200;2022-12-17T01:59:31;83.63;;;79.63;;
11269;SDS011;5692;48.956;9.200;2022-12-17T02:02:19;75.95;;;72.28;;
11269;SDS011;5692;48.956;9.200;2022-12-17T02:05:08;84.93;;;80.82;;
11269;SDS011;5692;48.956;9.200;2022-12-17T02:10:43;82.68;;;78.68;;
11269;SDS011;5692;48.956;9.200;2022-12-17T02:13:33;85.70;;;81.60;;
11269;SDS011;5692;48.956;9.200;2022-12-17T02:16:20;77.43;;;73.72;;
11269;SDS011;5692;48.956;9.200;2022-12-17T02:21:55;84.00;;;79.95;;
11269;SDS011;5692;48.956;9.200;2022-12-17T02:24:50;81.15;;;77.25;;
11269;SDS011;5692;48.956;9.200;2022-12-17T02:27:36;82.97;;;78.97;;
11269;SDS011;5692;48.956;9.200;2022-12-17T02:30:21;80.75;;;76.88;;
11269;SDS011;5692;48.956;9.200;2022-12-17T02:33:06;76.72;;;73.03;;
11269;SDS011;5692;48.956;9.200;2022-12-17T02:35:53;75.78;;;72.07;;
11269;SDS011;5692;48.956;9.200;2022-12-17T02:38:38;73.45;;;69.90;;
11269;SDS011;5692;48.956;9.200;2022-12-17T02:41:27;77.50;;;73.75;;
11269;SDS011;5692;48.956;9.200;2022-12-17T02:44:13;89.47;;;85.15;;
11269;SDS011;5692;48.956;9.200;2022-12-17T02:46:58;90.03;;;85.72;;
11269;SDS011;5692;48.956;9.200;2022-12-17T02:49:44;87.05;;;82.85;;
11269;SDS011;5692;48.956;9.200;2022-12-17T02:52:28;82.97;;;78.97;;
11269;SDS011;5692;48.956;9.200;2022-12-17T02:55:14;80.15;;;76.28;;
11269;SDS011;5692;48.956;9.200;2022-12-17T02:57:59;79.57;;;75.72;;
11269;SDS011;5692;48.956;9.200;2022-12-17T03:00:43;82.35;;;78.38;;
11269;SDS011;5692;48.956;9.200;2022-12-17T03:03:28;78.75;;;74.97;;
11269;SDS011;5692;48.956;9.200;2022-12-17T03:06:12;83.38;;;79.38;;
11269;SDS011;5692;48.956;9.200;2022-12-17T03:08:57;77.90;;;74.10;;
11269;SDS011;5692;48.956;9.200;2022-12-17T03:11:41;83.00;;;79.00;;
11269;SDS011;5692;48.956;9.200;2022-12-17T03:14:26;78.72;;;74.93;;
11269;SDS011;5692;48.956;9.200;2022-12-17T03:17:11;89.85;;;85.55;;
11269;SDS011;5692;48.956;9.200;2022-12-17T03:19:55;78.78;;;74.97;;
11269;SDS011;5692;48.956;9.200;2022-12-17T03:22:40;80.35;;;76.45;;
11269;SDS011;5692;48.956;9.200;2022-12-17T03:25:24;73.50;;;69.95;;
11269;SDS011;5692;48.956;9.200;2022-12-17T03:28:09;84.90;;;80.82;;
11269;SDS011;5692;48.956;9.200;2022-12-17T03:30:58;78.07;;;74.30;;
11269;SDS011;5692;48.956;9.200;2022-12-17T03:33:44;81.57;;;77.68;;
11269;SDS011;5692;48.956;9.200;2022-12-17T03:36:28;86.15;;;81.97;;
11269;SDS011;5692;48.956;9.200;2022-12-17T03:39:13;80.80;;;76.90;;
11269;SDS011;5692;48.956;9.200;2022-12-17T03:41:57;80.78;;;76.88;;
11269;SDS011;5692;48.956;9.200;2022-12-17T03:44:42;75.25;;;71.65;;
11269;SDS011;5692;48.956;9.200;2022-12-17T03:47:27;77.45;;;73.72;;
11269;SDS011;5692;48.956;9.200;2022-12-17T03:50:11;78.18;;;74.40;;
11269;SDS011;5692;48.956;9.200;2022-12-17T03:52:56;72.68;;;69.18;;
11269;SDS011;5692;48.956;9.200;2022-12-17T03:55:40;70.60;;;67.20;;
11269;SDS011;5692;48.956;9.200;2022-12-17T03:58:25;68.07;;;64.78;;
11269;SDS011;5692;48.956;9.200;2022-12-17T04:01:09;73.00;;;69.50;;
11269;SDS011;5692;48.956;9.200;2022-12-17T04:03:54;68.43;;;65.13;;
11269;SDS011;5692;48.956;9.200;2022-12-17T04:06:38;68.72;;;65.43;;
11269;SDS011;5692;48.956;9.200;2022-12-17T04:09:23;71.55;;;68.07;;
11269;SDS011;5692;48.956;9.200;2022-12-17T04:12:08;72.72;;;69.22;;
11269;SDS011;5692;48.956;9.200;2022-12-17T04:14:52;72.82;;;69.32;;
11269;SDS011;5692;48.956;9.200;2022-12-17T04:17:37;71.95;;;68.47;;
11269;SDS011;5692;48.956;9.200;2022-12-17T04:20:21;72.70;;;69.20;;
11269;SDS011;5692;48.956;9.200;2022-12-17T04:23:06;79.35;;;75.55;;
11269;SDS011;5692;48.956;9.200;2022-12-17T04:25:51;77.18;;;73.47;;
11269;SDS011;5692;48.956;9.200;2022-12-17T04:28:35;76.38;;;72.68;;
11269;SDS011;5692;48.956;9.200;2022-12-17T04:31:20;73.35;;;69.80;;
11269;SDS011;5692;48.956;9.200;2022-12-17T04:34:04;71.07;;;67.68;;
11269;SDS011;5692;48.956;9.200;2022-12-17T04:36:49;76.10;;;72.43;;
11269;SDS011;5692;48.956;9.200;2022-12-17T04:39:33;71.57;;;68.10;;
11269;SDS011;5692;48.956;9.200;2022-12-17T04:42:18;75.80;;;72.13;;
11269;SDS011;5692;48.956;9.200;2022-12-17T04:45:02;76.82;;;73.13;;
11269;SDS011;5692;48.956;9.200;2022-12-17T04:47:47;77.40;;;73.70;;
11269;SDS011;5692;48.956;9.200;2022-12-17T04:50:32;82.72;;;78.72;;
11269;SDS011;5692;48.956;9.200;2022-12-17T04:53:16;83.38;;;79.38;;
11269;SDS011;5692;48.956;9.200;2022-12-17T04:56:01;75.57;;;71.93;;
11269;SDS011;5692;48.956;9.200;2022-12-17T04:58:46;74.60;;;71.00;;
11269;SDS011;5692;48.956;9.200;2022-12-17T05:01:31;76.75;;;73.05;;
11269;SDS011;5692;48.956;9.200;2022-12-17T05:04:15;78.35;;;74.55;;
11269;SDS011;5692;48.956;9.200;2022-12-17T05:07:00;72.60;;;69.10;;
11269;SDS011;5692;48.956;9.200;2022-12-17T05:09:44;72.50;;;69.00;;
11269;SDS011;5692;48.956;9.200;2022-12-17T05:12:29;86.95;;;82.75;;
11269;SDS011;5692;48.956;9.200;2022-12-17T05:15:13;91.85;;;87.43;;
11269;SDS011;5692;48.956;9.200;2022-12-17T05:18:05;79.15;;;75.35;;
11269;SDS011;5692;48.956;9.200;2022-12-17T05:20:49;89.50;;;85.18;;
11269;SDS011;5692;48.956;9.200;2022-12-17T05:23:34;79.85;;;76.00;;
11269;SDS011;5692;48.956;9.200;2022-12-17T05:26:23;83.22;;;79.22;;
11269;SDS011;5692;48.956;9.200;2022-12-17T05:29:08;85.13;;;81.03;;
11269;SDS011;5692;48.956;9.200;2022-12-17T05:31:53;85.57;;;81.45;;
11269;SDS011;5692;48.956;9.200;2022-12-17T05:34:38;81.88;;;77.93;;
11269;SDS011;5692;48.956;9.200;2022-12-17T05:37:22;84.32;;;80.25;;
11269;SDS011;5692;48.956;9.200;2022-12-17T05:40:08;73.07;;;69.55;;
11269;SDS011;5692;48.956;9.200;2022-12-17T05:42:57;79.82;;;75.97;;
11269;SDS011;5692;48.956;9.200;2022-12-17T05:45:43;80.25;;;76.38;;
11269;SDS011;5692;48.956;9.200;2022-12-17T05:48:28;80.75;;;76.85;;
11269;SDS011;5692;48.956;9.200;2022-12-17T05:51:12;82.78;;;78.78;;
11269;SDS011;5692;48.956;9.200;2022-12-17T05:53:57;81.18;;;77.28;;
11269;SDS011;5692;48.956;9.200;2022-12-17T05:56:42;83.25;;;79.25;;
11269;SDS011;5692;48.956;9.200;2022-12-17T05:59:26;79.82;;;75.97;;
11269;SDS011;5692;48.956;9.200;2022-12-17T06:02:11;80.00;;;76.13;;
11269;SDS011;5692;48.956;9.200;2022-12-17T06:04:55;79.35;;;75.53;;
11269;SDS011;5692;48.956;9.200;2022-12-17T06:07:40;84.43;;;80.35;;
11269;SDS011;5692;48.956;9.200;2022-12-17T06:10:25;81.55;;;77.63;;
11269;SDS011;5692;48.956;9.200;2022-12-17T06:13:09;84.50;;;80.40;;
11269;SDS011;5692;48.956;9.200;2022-12-17T06:15:54;80.00;;;76.15;;
11269;SDS011;5692;48.956;9.200;2022-12-17T06:18:39;87.13;;;82.93;;
11269;SDS011;5692;48.956;9.200;2022-12-17T06:21:23;91.47;;;87.07;;
11269;SDS011;5692;48.956;9.200;2022-12-17T06:24:08;80.35;;;76.45;;
11269;SDS011;5692;48.956;9.200;2022-12-17T06:26:52;87.10;;;82.90;;
11269;SDS011;5692;48.956;9.200;2022-12-17T06:29:37;95.18;;;90.57;;
11269;SDS011;5692;48.956;9.200;2022-12-17T06:32:22;91.10;;;86.70;;
11269;SDS011;5692;48.956;9.200;2022-12-17T06:35:07;80.72;;;76.82;;
11269;SDS011;5692;48.956;9.200;2022-12-17T06:37:58;89.88;;;85.57;;
11269;SDS011;5692;48.956;9.200;2022-12-17T06:40:43;87.75;;;83.53;;
11269;SDS011;5692;48.956;9.200;2022-12-17T06:43:28;83.80;;;79.75;;
11269;SDS011;5692;48.956;9.200;2022-12-17T06:46:12;84.95;;;80.85;;
11269;SDS011;5692;48.956;9.200;2022-12-17T06:48:57;89.10;;;84.80;;
11269;SDS011;5692;48.956;9.200;2022-12-17T06:51:42;86.18;;;82.03;;
11269;SDS011;5692;48.956;9.200;2022-12-17T06:54:26;83.13;;;79.13;;
11269;SDS011;5692;48.956;9.200;2022-12-17T06:57:11;90.53;;;86.13;;
11269;SDS011;5692;48.956;9.200;2022-12-17T06:59:56;86.95;;;82.75;;
11269;SDS011;5692;48.956;9.200;2022-12-17T07:02:40;90.47;;;86.07;;
11269;SDS011;5692;48.956;9.200;2022-12-17T07:05:25;94.32;;;89.78;;
11269;SDS011;5692;48.956;9.200;2022-12-17T07:08:10;90.55;;;86.15;;
11269;SDS011;5692;48.956;9.200;2022-12-17T07:10:57;91.05;;;86.65;;
11269;SDS011;5692;48.956;9.200;2022-12-17T07:13:42;86.90;;;82.70;;
11269;SDS011;5692;48.956;9.200;2022-12-17T07:16:27;87.90;;;83.70;;
11269;SDS011;5692;48.956;9.200;2022-12-17T07:19:11;79.95;;;76.10;;
11269;SDS011;5692;48.956;9.200;2022-12-17T07:21:55;83.85;;;79.82;;
11269;SDS011;5692;48.956;9.200;2022-12-17T07:24:40;85.80;;;81.70;;
11269;SDS011;5692;48.956;9.200;2022-12-17T07:27:24;90.95;;;86.55;;
11269;SDS011;5692;48.956;9.200;2022-12-17T07:30:10;87.18;;;82.97;;
11269;SDS011;5692;48.956;9.200;2022-12-17T07:32:58;88.85;;;84.57;;
11269;SDS011;5692;48.956;9.200;2022-12-17T07:35:43;83.68;;;79.63;;
11269;SDS011;5692;48.956;9.200;2022-12-17T07:38:28;84.07;;;80.03;;
11269;SDS011;5692;48.956;9.200;2022-12-17T07:41:13;78.40;;;74.60;;
11269;SDS011;5692;48.956;9.200;2022-12-17T07:43:57;76.57;;;72.88;;
11269;SDS011;5692;48.956;9.200;2022-12-17T07:46:42;76.13;;;72.43;;
11269;SDS011;5692;48.956;9.200;2022-12-17T07:49:26;74.93;;;71.32;;
11269;SDS011;5692;48.956;9.200;2022-12-17T07:52:11;71.53;;;68.05;;
11269;SDS011;5692;48.956;9.200;2022-12-17T07:54:56;77.25;;;73.55;;
11269;SDS011;5692;48.956;9.200;2022-12-17T07:57:40;74.85;;;71.25;;
11269;SDS011;5692;48.956;9.200;2022-12-17T08:00:25;76.45;;;72.75;;
11269;SDS011;5692;48.956;9.200;2022-12-17T08:03:09;67.55;;;64.28;;
11269;SDS011;5692;48.956;9.200;2022-12-17T08:05:57;82.40;;;78.40;;
11269;SDS011;5692;48.956;9.200;2022-12-17T08:08:42;83.80;;;79.78;;
11269;SDS011;5692;48.956;9.200;2022-12-17T08:11:27;76.13;;;72.43;;
11269;SDS011;5692;48.956;9.200;2022-12-17T08:14:11;72.90;;;69.38;;
11269;SDS011;5692;48.956;9.200;2022-12-17T08:16:56;73.93;;;70.38;;
11269;SDS011;5692;48.956;9.200;2022-12-17T08:19:41;80.90;;;77.00;;
11269;SDS011;5692;48.956;9.200;2022-12-17T08:22:25;84.10;;;80.05;;
11269;SDS011;5692;48.956;9.200;2022-12-17T08:25:10;86.00;;;81.90;;
11269;SDS011;5692;48.956;9.200;2022-12-17T08:27:55;88.55;;;84.28;;
11269;SDS011;5692;48.956;9.200;2022-12-17T08:30:40;80.63;;;76.75;;
11269;SDS011;5692;48.956;9.200;2022-12-17T08:33:25;80.30;;;76.40;;
11269;SDS011;5692;48.956;9.200;2022-12-17T08:36:10;91.90;;;87.47;;
11269;SDS011;5692;48.956;9.200;2022-12-17T08:38:54;90.28;;;85.95;;
11269;SDS011;5692;48.956;9.200;2022-12-17T08:41:39;79.78;;;75.93;;
11269;SDS011;5692;48.956;9.200;2022-12-17T08:44:24;83.38;;;79.35;;
11269;SDS011;5692;48.956;9.200;2022-12-17T08:47:08;80.35;;;76.45;;
11269;SDS011;5692;48.956;9.200;2022-12-17T08:49:53;76.80;;;73.10;;
11269;SDS011;5692;48.956;9.200;2022-12-17T08:52:37;84.32;;;80.25;;
11269;SDS011;5692;48.956;9.200;2022-12-17T08:55:22;80.70;;;76.80;;
11269;SDS011;5692;48.956;9.200;2022-12-17T08:58:06;87.32;;;83.13;;
11269;SDS011;5692;48.956;9.200;2022-12-17T09:00:51;85.45;;;81.35;;
11269;SDS011;5692;48.956;9.200;2022-12-17T09:03:36;85.90;;;81.80;;
11269;SDS011;5692;48.956;9.200;2022-12-17T09:06:20;81.93;;;77.97;;
11269;SDS011;5692;48.956;9.200;2022-12-17T09:09:05;79.53;;;75.70;;
11269;SDS011;5692;48.956;9.200;2022-12-17T09:11:50;75.80;;;72.13;;
11269;SDS011;5692;48.956;9.200;2022-12-17T09:14:34;77.97;;;74.18;;
11269;SDS011;5692;48.956;9.200;2022-12-17T09:17:19;88.95;;;84.68;;
11269;SDS011;5692;48.956;9.200;2022-12-17T09:20:04;93.97;;;89.47;;
11269;SDS011;5692;48.956;9.200;2022-12-17T09:22:49;95.53;;;90.93;;
11269;SDS011;5692;48.956;9.200;2022-12-17T09:25:33;81.05;;;77.15;;
11269;SDS011;5692;48.956;9.200;2022-12-17T09:28:18;82.85;;;78.85;;
11269;SDS011;5692;48.956;9.200;2022-12-17T09:31:02;88.25;;;84.00;;
11269;SDS011;5692;48.956;9.200;2022-12-17T09:33:47;94.50;;;89.95;;
11269;SDS011;5692;48.956;9.200;2022-12-17T09:36:31;92.07;;;87.65;;
11269;SDS011;5692;48.956;9.200;2022-12-17T09:39:16;87.93;;;83.70;;
11269;SDS011;5692;48.956;9.200;2022-12-17T09:42:07;85.35;;;81.25;;
11269;SDS011;5692;48.956;9.200;2022-12-17T09:48:13;77.88;;;74.13;;
11269;SDS011;5692;48.956;9.200;2022-12-17T09:51:00;88.70;;;84.40;;
11269;SDS011;5692;48.956;9.200;2022-12-17T09:53:49;86.57;;;82.38;;
11269;SDS011;5692;48.956;9.200;2022-12-17T09:56:34;89.75;;;85.45;;
11269;SDS011;5692;48.956;9.200;2022-12-17T09:59:26;91.85;;;87.45;;
11269;SDS011;5692;48.956;9.200;2022-12-17T10:04:56;98.30;;;93.60;;
11269;SDS011;5692;48.956;9.200;2022-12-17T10:07:41;94.35;;;89.82;;
11269;SDS011;5692;48.956;9.200;2022-12-17T10:10:29;89.50;;;85.18;;
11269;SDS011;5692;48.956;9.200;2022-12-17T10:13:15;99.15;;;94.35;;
11269;SDS011;5692;48.956;9.200;2022-12-17T10:16:00;96.40;;;91.80;;
11269;SDS011;5692;48.956;9.200;2022-12-17T10:18:44;86.60;;;82.43;;
11269;SDS011;5692;48.956;9.200;2022-12-17T10:21:30;93.32;;;88.82;;
11269;SDS011;5692;48.956;9.200;2022-12-17T10:24:15;91.50;;;87.10;;
11269;SDS011;5692;48.956;9.200;2022-12-17T10:27:07;91.85;;;87.45;;
11269;SDS011;5692;48.956;9.200;2022-12-17T10:29:51;86.57;;;82.40;;
11269;SDS011;5692;48.956;9.200;2022-12-17T10:32:36;89.32;;;85.03;;
11269;SDS011;5692;48.956;9.200;2022-12-17T10:35:22;94.78;;;90.20;;
11269;SDS011;5692;48.956;9.200;2022-12-17T10:41:02;91.15;;;86.75;;
11269;SDS011;5692;48.956;9.200;2022-12-17T10:43:46;95.80;;;91.20;;
11269;SDS011;5692;48.956;9.200;2022-12-17T10:46:32;94.95;;;90.35;;
11269;SDS011;5692;48.956;9.200;2022-12-17T10:49:17;92.70;;;88.20;;
11269;SDS011;5692;48.956;9.200;2022-12-17T10:55:01;82.93;;;78.93;;
11269;SDS011;5692;48.956;9.200;2022-12-17T10:57:47;94.65;;;90.05;;
11269;SDS011;5692;48.956;9.200;2022-12-17T11:00:33;90.22;;;85.88;;
11269;SDS011;5692;48.956;9.200;2022-12-17T11:03:23;83.88;;;79.82;;
11269;SDS011;5692;48.956;9.200;2022-12-17T11:06:08;89.05;;;84.75;;
11269;SDS011;5692;48.956;9.200;2022-12-17T11:08:54;88.13;;;83.90;;
11269;SDS011;5692;48.956;9.200;2022-12-17T11:11:40;89.82;;;85.53;;
11269;SDS011;5692;48.956;9.200;2022-12-17T11:14:25;80.75;;;76.85;;
11269;SDS011;5692;48.956;9.200;2022-12-17T11:17:13;88.90;;;84.60;;
11269;SDS011;5692;48.956;9.200;2022-12-17T11:20:07;92.72;;;88.22;;
11269;SDS011;5692;48.956;9.200;2022-12-17T11:22:58;89.00;;;84.70;;
11269;SDS011;5692;48.956;9.200;2022-12-17T11:25:45;86.63;;;82.43;;
11269;SDS011;5692;48.956;9.200;2022-12-17T11:28:33;86.07;;;81.93;;
11269;SDS011;5692;48.956;9.200;2022-12-17T11:37:20;92.88;;;88.38;;
11269;SDS011;5692;48.956;9.200;2022-12-17T11:43:02;93.38;;;88.88;;
11269;SDS011;5692;48.956;9.200;2022-12-17T11:51:27;97.70;;;93.00;;
11269;SDS011;5692;48.956;9.200;2022-12-17T11:54:19;95.50;;;90.90;;
11269;SDS011;5692;48.956;9.200;2022-12-17T12:06:02;90.88;;;86.47;;
11269;SDS011;5692;48.956;9.200;2022-12-17T12:11:52;95.47;;;90.88;;
11269;SDS011;5692;48.956;9.200;2022-12-17T12:14:45;95.50;;;90.90;;
11269;SDS011;5692;48.956;9.200;2022-12-17T12:17:48;90.65;;;86.28;;
11269;SDS011;5692;48.956;9.200;2022-12-17T12:20:43;91.97;;;87.57;;
11269;SDS011;5692;48.956;9.200;2022-12-17T12:23:35;91.00;;;86.60;;
11269;SDS011;5692;48.956;9.200;2022-12-17T12:26:31;87.05;;;82.85;;
11269;SDS011;5692;48.956;9.200;2022-12-17T12:29:38;86.60;;;82.40;;
11269;SDS011;5692;48.956;9.200;2022-12-17T12:32:28;84.97;;;80.88;;
11269;SDS011;5692;48.956;9.200;2022-12-17T12:35:18;91.07;;;86.68;;
11269;SDS011;5692;48.956;9.200;2022-12-17T12:38:04;84.18;;;80.13;;
11269;SDS011;5692;48.956;9.200;2022-12-17T12:40:54;83.47;;;79.45;;
11269;SDS011;5692;48.956;9.200;2022-12-17T12:43:43;90.57;;;86.20;;
11269;SDS011;5692;48.956;9.200;2022-12-17T12:46:52;88.15;;;83.90;;
11269;SDS011;5692;48.956;9.200;2022-12-17T12:49:44;92.18;;;87.78;;
11269;SDS011;5692;48.956;9.200;2022-12-17T12:52:31;96.63;;;91.97;;
11269;SDS011;5692;48.956;9.200;2022-12-17T12:55:16;92.53;;;88.07;;
11269;SDS011;5692;48.956;9.200;2022-12-17T12:58:02;88.70;;;84.40;;
11269;SDS011;5692;48.956;9.200;2022-12-17T13:06:42;96.70;;;92.05;;
11269;SDS011;5692;48.956;9.200;2022-12-17T13:14:28;89.88;;;85.53;;
11269;SDS011;5692;48.956;9.200;2022-12-17T13:17:03;88.90;;;84.60;;
11269;SDS011;5692;48.956;9.200;2022-12-17T13:22:47;90.55;;;86.15;;
11269;SDS011;5692;48.956;9.200;2022-12-17T13:24:46;95.18;;;90.57;;
11269;SDS011;5692;48.956;9.200;2022-12-17T13:29:58;91.93;;;87.53;;
11269;SDS011;5692;48.956;9.200;2022-12-17T13:32:41;89.78;;;85.45;;
11269;SDS011;5692;48.956;9.200;2022-12-17T13:35:29;88.97;;;84.68;;
11269;SDS011;5692;48.956;9.200;2022-12-17T13:38:04;91.82;;;87.43;;
11269;SDS011;5692;48.956;9.200;2022-12-17T13:40:41;92.03;;;87.63;;
11269;SDS011;5692;48.956;9.200;2022-12-17T13:43:15;92.20;;;87.78;;
11269;SDS011;5692;48.956;9.200;2022-12-17T13:45:41;89.85;;;85.55;;
11269;SDS011;5692;48.956;9.200;2022-12-17T13:48:15;87.90;;;83.68;;
11269;SDS011;5692;48.956;9.200;2022-12-17T13:50:51;90.93;;;86.55;;
11269;SDS011;5692;48.956;9.200;2022-12-17T13:53:17;95.18;;;90.60;;
11269;SDS011;5692;48.956;9.200;2022-12-17T13:55:48;89.03;;;84.72;;
11269;SDS011;5692;48.956;9.200;2022-12-17T13:58:33;95.70;;;91.10;;
11269;SDS011;5692;48.956;9.200;2022-12-17T14:01:09;94.82;;;90.25;;
11269;SDS011;5692;48.956;9.200;2022-12-17T14:03:35;91.63;;;87.22;;
11269;SDS011;5692;48.956;9.200;2022-12-17T14:06:02;97.07;;;92.40;;
11269;SDS011;5692;48.956;9.200;2022-12-17T14:08:30;90.60;;;86.22;;
11269;SDS011;5692;48.956;9.200;2022-12-17T14:10:57;87.68;;;83.47;;
11269;SDS011;5692;48.956;9.200;2022-12-17T14:13:42;87.35;;;83.15;;
11269;SDS011;5692;48.956;9.200;2022-12-17T14:16:14;84.00;;;79.95;;
11269;SDS011;5692;48.956;9.200;2022-12-17T14:18:41;91.22;;;86.85;;
11269;SDS011;5692;48.956;9.200;2022-12-17T14:21:09;84.45;;;80.35;;
11269;SDS011;5692;48.956;9.200;2022-12-17T14:23:35;89.10;;;84.80;;
11269;SDS011;5692;48.956;9.200;2022-12-17T14:26:01;85.68;;;81.55;;
11269;SDS011;5692;48.956;9.200;2022-12-17T14:31:02;91.63;;;87.22;;
11269;SDS011;5692;48.956;9.200;2022-12-17T14:33:29;84.35;;;80.30;;
11269;SDS011;5692;48.956;9.200;2022-12-17T14:35:57;85.30;;;81.20;;
11269;SDS011;5692;48.956;9.200;2022-12-17T14:38:24;91.10;;;86.70;;
11269;SDS011;5692;48.956;9.200;2022-12-17T14:40:51;91.45;;;87.05;;
11269;SDS011;5692;48.956;9.200;2022-12-17T14:43:19;92.40;;;87.95;;
11269;SDS011;5692;48.956;9.200;2022-12-17T14:45:51;95.10;;;90.50;;
11269;SDS011;5692;48.956;9.200;2022-12-17T14:48:37;94.57;;;90.03;;
11269;SDS011;5692;48.956;9.200;2022-12-17T14:51:22;81.63;;;77.70;;
11269;SDS011;5692;48.956;9.200;2022-12-17T14:53:48;81.63;;;77.72;;
11269;SDS011;5692;48.956;9.200;2022-12-17T14:56:21;88.82;;;84.53;;
11269;SDS011;5692;48.956;9.200;2022-12-17T14:58:47;86.70;;;82.50;;
11269;SDS011;5692;48.956;9.200;2022-12-17T15:01:13;85.43;;;81.32;;
11269;SDS011;5692;48.956;9.200;2022-12-17T15:03:40;86.57;;;82.38;;
11269;SDS011;5692;48.956;9.200;2022-12-17T15:06:08;81.32;;;77.43;;
11269;SDS011;5692;48.956;9.200;2022-12-17T15:08:35;85.43;;;81.32;;
11269;SDS011;5692;48.956;9.200;2022-12-17T15:11:03;81.45;;;77.55;;
11269;SDS011;5692;48.956;9.200;2022-12-17T15:13:29;82.88;;;78.88;;
11269;SDS011;5692;48.956;9.200;2022-12-17T15:15:56;87.43;;;83.22;;
11269;SDS011;5692;48.956;9.200;2022-12-17T15:18:22;88.00;;;83.78;;
11269;SDS011;5692;48.956;9.200;2022-12-17T15:20:48;83.93;;;79.88;;
11269;SDS011;5692;48.956;9.200;2022-12-17T15:23:15;82.07;;;78.10;;
11269;SDS011;5692;48.956;9.200;2022-12-17T15:25:41;90.53;;;86.15;;
11269;SDS011;5692;48.956;9.200;2022-12-17T15:28:08;88.88;;;84.60;;
11269;SDS011;5692;48.956;9.200;2022-12-17T15:30:34;78.68;;;74.88;;
11269;SDS011;5692;48.956;9.200;2022-12-17T15:33:00;88.95;;;84.65;;
11269;SDS011;5692;48.956;9.200;2022-12-17T15:35:27;83.85;;;79.80;;
11269;SDS011;5692;48.956;9.200;2022-12-17T15:37:54;91.35;;;86.95;;
11269;SDS011;5692;48.956;9.200;2022-12-17T15:40:20;85.50;;;81.38;;
11269;SDS011;5692;48.956;9.200;2022-12-17T15:42:46;93.90;;;89.40;;
11269;SDS011;5692;48.956;9.200;2022-12-17T15:45:30;83.68;;;79.63;;
11269;SDS011;5692;48.956;9.200;2022-12-17T15:47:56;82.90;;;78.90;;
11269;SDS011;5692;48.956;9.200;2022-12-17T15:50:22;77.68;;;73.93;;
11269;SDS011;5692;48.956;9.200;2022-12-17T15:52:48;77.47;;;73.72;;
11269;SDS011;5692;48.956;9.200;2022-12-17T15:55:14;77.20;;;73.47;;
11269;SDS011;5692;48.956;9.200;2022-12-17T15:57:41;82.15;;;78.18;;
11269;SDS011;5692;48.956;9.200;2022-12-17T16:00:07;76.63;;;72.93;;
11269;SDS011;5692;48.956;9.200;2022-12-17T16:02:33;82.70;;;78.70;;
11269;SDS011;5692;48.956;9.200;2022-12-17T16:04:59;82.07;;;78.10;;
11269;SDS011;5692;48.956;9.200;2022-12-17T16:07:25;85.45;;;81.35;;
11269;SDS011;5692;48.956;9.200;2022-12-17T16:09:51;89.22;;;84.93;;
11269;SDS011;5692;48.956;9.200;2022-12-17T16:12:17;79.13;;;75.32;;
11269;SDS011;5692;48.956;9.200;2022-12-17T16:14:43;80.18;;;76.30;;
11269;SDS011;5692;48.956;9.200;2022-12-17T16:17:09;85.50;;;81.38;;
11269;SDS011;5692;48.956;9.200;2022-12-17T16:19:35;88.30;;;84.00;;
11269;SDS011;5692;48.956;9.200;2022-12-17T16:22:01;85.05;;;80.95;;
11269;SDS011;5692;48.956;9.200;2022-12-17T16:24:27;77.68;;;73.93;;
11269;SDS011;5692;48.956;9.200;2022-12-17T16:26:53;85.20;;;81.10;;
11269;SDS011;5692;48.956;9.200;2022-12-17T16:29:19;78.75;;;74.95;;
11269;SDS011;5692;48.956;9.200;2022-12-17T16:31:45;82.38;;;78.38;;
11269;SDS011;5692;48.956;9.200;2022-12-17T16:34:11;76.18;;;72.50;;
11269;SDS011;5692;48.956;9.200;2022-12-17T16:36:37;73.07;;;69.57;;
11269;SDS011;5692;48.956;9.200;2022-12-17T16:39:04;80.85;;;76.95;;
11269;SDS011;5692;48.956;9.200;2022-12-17T16:41:30;89.93;;;85.63;;
11269;SDS011;5692;48.956;9.200;2022-12-17T16:43:56;78.07;;;74.30;;
11269;SDS011;5692;48.956;9.200;2022-12-17T16:46:30;77.40;;;73.70;;
11269;SDS011;5692;48.956;9.200;2022-12-17T16:48:57;78.50;;;74.70;;
11269;SDS011;5692;48.956;9.200;2022-12-17T16:51:24;75.05;;;71.45;;
11269;SDS011;5692;48.956;9.200;2022-12-17T16:53:50;81.03;;;77.13;;
11269;SDS011;5692;48.956;9.200;2022-12-17T16:56:18;80.93;;;77.03;;
11269;SDS011;5692;48.956;9.200;2022-12-17T16:58:44;77.45;;;73.72;;
11269;SDS011;5692;48.956;9.200;2022-12-17T17:01:10;88.30;;;84.05;;